createdAt,value
2024-01-05T00:00:09.903Z,100441.25
2024-01-05T00:02:36.641Z,100450.78
2024-01-05T00:05:03.297Z,100451.63
2024-01-05T00:07:30.413Z,100456.72
2024-01-05T00:09:57.256Z,100460.31
2024-01-05T00:12:23.972Z,100462.84
2024-01-05T00:14:50.623Z,100456.72
2024-01-05T00:17:17.577Z,100460.31
2024-01-05T00:19:44.323Z,100460.31
2024-01-05T00:22:11.016Z,100465.56
2024-01-05T00:24:38.483Z,100469.22
2024-01-05T00:27:05.382Z,100460.63
2024-01-05T00:29:32.037Z,100484.91
2024-01-05T00:31:58.756Z,100477.00
2024-01-05T00:34:25.417Z,100477.97
2024-01-05T00:36:52.052Z,100483.38
2024-01-05T00:39:18.835Z,100486.75
2024-01-05T00:41:47.467Z,100484.06
2024-01-05T00:44:14.252Z,100477.00
2024-01-05T00:46:41.270Z,100471.75
2024-01-05T00:49:08.054Z,100487.47
2024-01-05T00:51:34.801Z,100491.69
2024-01-05T00:54:01.541Z,100495.22
2024-01-05T00:56:28.174Z,100496.97
2024-01-05T00:58:55.008Z,100509.34
2024-01-05T01:01:21.754Z,100506.91
2024-01-05T01:03:48.565Z,100479.81
2024-01-05T01:06:15.378Z,100488.47
2024-01-05T01:08:42.051Z,100502.41
2024-01-05T01:11:15.624Z,100504.09
2024-01-05T01:13:43.525Z,100506.66
2024-01-05T01:16:10.989Z,100492.56
2024-01-05T01:18:37.811Z,100498.69
2024-01-05T01:21:04.930Z,100501.31
2024-01-05T01:23:31.749Z,100501.38
2024-01-05T01:25:58.366Z,100509.22
2024-01-05T01:28:25.006Z,100513.63
2024-01-05T01:30:51.725Z,100510.13
2024-01-05T01:33:20.655Z,100518.91
2024-01-05T01:35:47.378Z,100523.28
2024-01-05T01:38:14.005Z,100523.22
2024-01-05T01:40:47.016Z,100523.28
2024-01-05T01:43:26.565Z,100525.16
2024-01-05T01:45:54.477Z,100526.78
2024-01-05T01:48:22.261Z,100523.28
2024-01-05T01:50:50.864Z,100525.84
2024-01-05T01:53:20.283Z,100525.16
2024-01-05T01:55:49.922Z,100520.22
2024-01-05T01:58:20.907Z,100521.47
2024-01-05T02:00:47.945Z,100527.66
2024-01-05T02:03:15.581Z,100536.97
2024-01-05T02:05:43.224Z,100540.88
2024-01-05T02:08:09.902Z,100543.03
2024-01-05T02:10:36.511Z,100540.72
2024-01-05T02:13:03.340Z,100544.50
2024-01-05T02:15:30.070Z,100544.72
2024-01-05T02:17:56.912Z,100546.50
2024-01-05T02:20:23.817Z,100534.06
2024-01-05T02:23:03.839Z,100541.78
2024-01-05T02:25:30.479Z,100547.22
2024-01-05T02:27:57.104Z,100560.44
2024-01-05T02:30:23.816Z,100551.06
2024-01-05T02:32:50.697Z,100552.38
2024-01-05T02:35:17.343Z,100553.41
2024-01-05T02:37:44.644Z,100552.69
2024-01-05T02:40:12.899Z,100559.56
2024-01-05T02:42:42.467Z,100558.66
2024-01-05T02:45:09.481Z,100563.75
2024-01-05T02:47:36.229Z,100568.69
2024-01-05T02:50:03.641Z,100570.25
2024-01-05T02:52:30.326Z,100563.38
2024-01-05T02:54:57.029Z,100576.50
2024-01-05T02:57:23.744Z,100563.44
2024-01-05T02:59:50.465Z,100583.31
2024-01-05T03:02:17.242Z,100573.50
2024-01-05T03:04:44.950Z,100583.09
2024-01-05T03:07:11.754Z,100575.91
2024-01-05T03:09:38.558Z,100578.31
2024-01-05T03:12:06.707Z,100573.13
2024-01-05T03:14:33.451Z,100575.69
2024-01-05T03:17:00.136Z,100567.63
2024-01-05T03:19:26.941Z,100567.47
2024-01-05T03:21:53.625Z,100569.03
2024-01-05T03:24:20.319Z,100575.84
2024-01-05T03:26:47.098Z,100574.81
2024-01-05T03:29:13.822Z,100567.69
2024-01-05T03:31:40.597Z,100566.84
2024-01-05T03:34:07.407Z,100565.84
2024-01-05T03:36:34.233Z,100573.66
2024-01-05T03:39:01.142Z,100581.56
2024-01-05T03:41:28.118Z,100579.75
2024-01-05T03:43:55.755Z,100591.13
2024-01-05T03:46:22.475Z,100588.44
2024-01-05T03:48:49.362Z,100588.50
2024-01-05T03:51:16.311Z,100594.53
2024-01-05T03:53:43.146Z,100598.09
2024-01-05T03:56:09.889Z,100591.00
2024-01-05T03:58:36.723Z,100598.03
2024-01-05T04:01:04.253Z,100587.41
2024-01-05T04:03:31.529Z,100587.41
2024-01-05T04:05:58.379Z,100589.28
2024-01-05T04:08:25.209Z,100597.34
2024-01-05T04:10:51.825Z,100596.41
2024-01-05T04:13:18.580Z,100597.34
2024-01-05T04:15:46.550Z,100603.38
2024-01-05T04:18:14.320Z,100601.66
2024-01-05T04:20:41.233Z,100603.50
2024-01-05T04:23:07.978Z,100601.97
2024-01-05T04:25:34.641Z,100606.53
2024-01-05T04:28:01.273Z,100608.50
2024-01-05T04:30:28.197Z,100616.38
2024-01-05T04:32:55.080Z,100623.50
2024-01-05T04:35:21.880Z,100606.00
2024-01-05T04:37:48.596Z,100621.53
2024-01-05T04:40:15.552Z,100625.03
2024-01-05T04:42:42.292Z,100626.91
2024-01-05T04:45:11.922Z,100628.91
2024-01-05T04:47:38.732Z,100639.59
2024-01-05T04:50:06.221Z,100640.81
2024-01-05T04:52:35.760Z,100642.88
2024-01-05T04:55:02.664Z,100641.34
2024-01-05T04:57:29.389Z,100639.69
2024-01-05T04:59:56.138Z,100649.44
2024-01-05T05:02:22.831Z,100663.34
2024-01-05T05:04:49.608Z,100656.41
2024-01-05T05:07:16.340Z,100656.41
2024-01-05T05:09:43.075Z,100663.53
2024-01-05T05:12:09.729Z,100671.47
2024-01-05T05:14:36.437Z,100677.03
2024-01-05T05:17:03.155Z,100673.91
2024-01-05T05:19:30.042Z,100676.66
2024-01-05T05:21:56.890Z,100682.16
2024-01-05T05:24:23.699Z,100678.63
2024-01-05T05:26:50.326Z,100690.59
2024-01-05T05:29:17.030Z,100693.94
2024-01-05T05:31:43.952Z,100694.88
2024-01-05T05:34:10.780Z,100690.41
2024-01-05T05:36:37.547Z,100678.75
2024-01-05T05:39:04.358Z,100692.72
2024-01-05T05:41:31.063Z,100682.28
2024-01-05T05:43:57.780Z,100698.91
2024-01-05T05:46:24.422Z,100708.63
2024-01-05T05:48:51.332Z,100712.81
2024-01-05T05:51:18.289Z,100704.16
2024-01-05T05:53:45.034Z,100707.72
2024-01-05T05:56:11.731Z,100708.28
2024-01-05T05:58:38.388Z,100717.66
2024-01-05T06:01:06.434Z,100726.47
2024-01-05T06:03:33.318Z,100728.19
2024-01-05T06:06:00.209Z,100724.59
2024-01-05T06:08:27.040Z,100734.50
2024-01-05T06:10:53.681Z,100739.00
2024-01-05T06:13:20.406Z,100733.84
2024-01-05T06:15:47.060Z,100734.56
2024-01-05T06:18:14.079Z,100737.97
2024-01-05T06:20:40.831Z,100745.66
2024-01-05T06:23:07.497Z,100747.19
2024-01-05T06:25:34.174Z,100756.25
2024-01-05T06:28:01.603Z,100752.13
2024-01-05T06:30:28.394Z,100758.47
2024-01-05T06:32:55.302Z,100742.81
2024-01-05T06:35:22.093Z,100751.66
2024-01-05T06:37:48.824Z,100758.75
2024-01-05T06:40:15.610Z,100751.78
2024-01-05T06:42:42.664Z,100764.78
2024-01-05T06:45:09.767Z,100763.91
2024-01-05T06:47:36.561Z,100756.75
2024-01-05T06:50:05.664Z,100762.78
2024-01-05T06:52:32.657Z,100761.88
2024-01-05T06:55:02.309Z,100771.38
2024-01-05T06:57:30.755Z,100770.66
2024-01-05T06:59:57.804Z,100776.63
2024-01-05T07:02:24.819Z,100778.44
2024-01-05T07:04:51.498Z,100782.91
2024-01-05T07:07:18.154Z,100777.78
2024-01-05T07:09:44.819Z,100781.34
2024-01-05T07:12:11.523Z,100774.38
2024-01-05T07:14:40.180Z,100795.41
2024-01-05T07:17:07.010Z,100790.13
2024-01-05T07:19:34.040Z,100784.03
2024-01-05T07:22:00.737Z,100786.72
2024-01-05T07:24:27.482Z,100786.78
2024-01-05T07:26:54.242Z,100799.25
2024-01-05T07:29:20.943Z,100801.88
2024-01-05T07:31:47.607Z,100801.09
2024-01-05T07:34:14.480Z,100798.47
2024-01-05T07:36:44.746Z,100806.47
2024-01-05T07:39:12.557Z,100801.28
2024-01-05T07:41:39.867Z,100806.34
2024-01-05T07:44:06.889Z,100809.66
2024-01-05T07:46:33.943Z,100789.28
2024-01-05T07:49:00.793Z,100806.56
2024-01-05T07:51:27.865Z,100806.34
2024-01-05T07:53:54.674Z,100808.06
2024-01-05T07:56:21.413Z,100808.75
2024-01-05T07:58:48.109Z,100808.63
2024-01-05T08:01:23.782Z,100819.00
2024-01-05T08:03:50.645Z,100820.53
2024-01-05T08:06:23.878Z,100831.78
2024-01-05T08:08:51.595Z,100836.97
2024-01-05T08:11:18.955Z,100832.78
2024-01-05T08:13:49.913Z,100842.03
2024-01-05T08:16:16.678Z,100845.44
2024-01-05T08:18:43.431Z,100841.97
2024-01-05T08:21:10.469Z,100836.78
2024-01-05T08:23:37.963Z,100849.13
2024-01-05T08:26:05.275Z,100849.25
2024-01-05T08:28:32.116Z,100849.25
2024-01-05T08:30:59.820Z,100852.56
2024-01-05T08:33:26.943Z,100841.25
2024-01-05T08:35:53.895Z,100867.03
2024-01-05T08:38:20.695Z,100863.50
2024-01-05T08:40:48.683Z,100859.22
2024-01-05T08:43:15.528Z,100865.19
2024-01-05T08:45:42.305Z,100866.25
2024-01-05T08:48:09.118Z,100866.31
2024-01-05T08:50:36.614Z,100867.38
2024-01-05T08:53:03.401Z,100863.34
2024-01-05T08:55:30.403Z,100867.09
2024-01-05T08:57:57.799Z,100863.91
2024-01-05T09:00:24.875Z,100868.50
2024-01-05T09:02:51.842Z,100874.97
2024-01-05T09:05:18.699Z,100875.81
2024-01-05T09:07:45.413Z,100889.00
2024-01-05T09:10:12.129Z,100892.56
2024-01-05T09:12:39.466Z,100884.03
2024-01-05T09:15:08.192Z,100897.22
2024-01-05T09:17:35.181Z,100884.28
2024-01-05T09:20:02.255Z,100893.75
2024-01-05T09:22:29.049Z,100893.22
2024-01-05T09:24:55.806Z,100892.19
2024-01-05T09:27:23.507Z,100908.72
2024-01-05T09:29:50.234Z,100906.91
2024-01-05T09:32:17.133Z,100906.91
2024-01-05T09:34:44.463Z,100910.19
2024-01-05T09:37:11.709Z,100910.31
2024-01-05T09:39:38.446Z,100904.06
2024-01-05T09:42:05.554Z,100907.56
2024-01-05T09:44:33.045Z,100900.53
2024-01-05T09:46:59.848Z,100903.72
2024-01-05T09:49:27.308Z,100920.16
2024-01-05T09:51:54.621Z,100921.75
2024-01-05T09:54:21.422Z,100920.06
2024-01-05T09:56:48.667Z,100922.31
2024-01-05T09:59:18.799Z,100917.91
2024-01-05T10:01:50.417Z,100935.25
2024-01-05T10:04:17.093Z,100933.41
2024-01-05T10:06:43.999Z,100926.47
2024-01-05T10:09:10.793Z,100938.53
2024-01-05T10:11:43.233Z,100931.44
2024-01-05T10:14:14.864Z,100930.78
2024-01-05T10:16:41.621Z,100934.97
2024-01-05T10:19:18.978Z,100936.69
2024-01-05T10:21:48.244Z,100934.97
2024-01-05T10:24:25.874Z,100938.66
2024-01-05T10:27:06.963Z,100944.84
2024-01-05T10:29:38.687Z,100954.72
2024-01-05T10:32:16.593Z,100946.19
2024-01-05T10:34:47.882Z,100939.09
2024-01-05T10:37:16.034Z,100946.03
2024-01-05T10:39:49.562Z,100950.44
2024-01-05T10:42:26.696Z,100948.75
2024-01-05T10:44:58.035Z,100941.78
2024-01-05T10:47:27.292Z,100948.59
2024-01-05T10:49:57.517Z,100945.78
2024-01-05T10:52:27.545Z,100942.06
2024-01-05T10:55:08.831Z,100951.53
2024-01-05T10:57:38.942Z,100952.75
2024-01-05T11:00:07.026Z,100959.69
2024-01-05T11:02:42.218Z,100970.38
2024-01-05T11:05:16.141Z,100964.31
2024-01-05T11:07:43.847Z,100969.06
2024-01-05T11:10:33.360Z,100974.31
2024-01-05T11:13:13.247Z,100983.16
2024-01-05T11:16:18.492Z,100980.75
2024-01-05T11:19:15.119Z,100967.75
2024-01-05T11:21:58.796Z,100968.72
2024-01-05T11:24:26.038Z,100964.44
2024-01-05T11:26:53.452Z,100969.69
2024-01-05T11:29:49.166Z,100972.34
2024-01-05T11:32:37.428Z,100967.75
2024-01-05T11:35:06.109Z,100976.22
2024-01-05T11:37:33.178Z,100984.84
2024-01-05T11:40:01.715Z,100980.53
2024-01-05T11:42:30.160Z,100996.66
2024-01-05T11:44:58.805Z,100986.00
2024-01-05T11:47:48.570Z,100989.25
2024-01-05T11:50:33.055Z,100997.16
2024-01-05T11:53:15.834Z,101000.53
2024-01-05T11:55:50.741Z,100986.69
2024-01-05T11:58:22.308Z,100995.25
2024-01-05T12:00:51.134Z,100996.81
2024-01-05T12:03:18.940Z,100992.34
2024-01-05T12:05:51.204Z,100982.72
2024-01-05T12:08:18.614Z,100987.84
2024-01-05T12:10:45.556Z,100979.03
2024-01-05T12:13:12.312Z,100982.44
2024-01-05T12:15:47.541Z,100994.81
2024-01-05T12:18:28.014Z,100993.13
2024-01-05T12:21:02.664Z,100995.16
2024-01-05T12:23:33.065Z,101007.19
2024-01-05T12:26:04.915Z,101010.78
2024-01-05T12:28:35.010Z,101003.66
2024-01-05T12:31:03.610Z,101013.91
2024-01-05T12:33:32.357Z,101010.19
2024-01-05T12:35:59.336Z,101009.47
2024-01-05T12:38:26.710Z,101011.75
2024-01-05T12:41:05.345Z,101008.44
2024-01-05T12:43:32.140Z,101009.31
2024-01-05T12:46:01.806Z,101007.81
2024-01-05T12:48:29.024Z,100999.19
2024-01-05T12:51:11.789Z,101001.91
2024-01-05T12:53:38.623Z,100990.81
2024-01-05T12:56:09.251Z,100985.97
2024-01-05T12:58:43.986Z,100983.00
2024-01-05T13:01:18.753Z,100993.09
2024-01-05T13:04:01.130Z,100991.78
2024-01-05T13:06:31.570Z,100989.44
2024-01-05T13:09:01.679Z,100987.97
2024-01-05T13:11:28.512Z,100998.50
2024-01-05T13:13:55.290Z,101009.03
2024-01-05T13:16:22.137Z,100996.81
2024-01-05T13:18:49.523Z,101001.03
2024-01-05T13:21:42.979Z,100998.38
2024-01-05T13:25:10.441Z,101003.06
2024-01-05T13:27:40.069Z,101008.03
2024-01-05T13:30:10.834Z,101012.63
2024-01-05T13:32:39.626Z,101018.06
2024-01-05T13:35:06.865Z,101008.59
2024-01-05T13:37:33.879Z,101014.16
2024-01-05T13:40:01.665Z,101018.69
2024-01-05T13:42:30.098Z,101015.53
2024-01-05T13:44:57.482Z,101012.41
2024-01-05T13:47:25.800Z,101003.72
2024-01-05T13:49:52.765Z,101004.66
2024-01-05T13:52:19.462Z,100995.19
2024-01-05T13:54:48.595Z,101002.31
2024-01-05T13:57:15.721Z,100999.00
2024-01-05T13:59:42.452Z,101000.72
2024-01-05T14:02:09.197Z,101000.84
2024-01-05T14:04:35.896Z,100988.88
2024-01-05T14:07:02.724Z,100981.88
2024-01-05T14:09:29.616Z,100989.59
2024-01-05T14:11:56.667Z,100994.13
2024-01-05T14:14:23.389Z,100996.13
2024-01-05T14:16:50.136Z,100998.97
2024-01-05T14:19:16.888Z,101002.50
2024-01-05T14:21:43.652Z,101006.19
2024-01-05T14:24:10.896Z,101019.41
2024-01-05T14:26:38.634Z,101023.22
2024-01-05T14:29:06.351Z,101021.66
2024-01-05T14:31:37.726Z,101011.38
2024-01-05T14:34:04.998Z,101030.69
2024-01-05T14:36:31.835Z,101032.47
2024-01-05T14:38:59.462Z,101050.03
2024-01-05T14:41:29.351Z,101050.13
2024-01-05T14:43:56.573Z,101039.78
2024-01-05T14:46:23.315Z,101033.63
2024-01-05T14:48:52.822Z,101030.09
2024-01-05T14:51:19.536Z,101026.69
2024-01-05T14:53:46.278Z,101036.19
2024-01-05T14:56:17.749Z,101034.50
2024-01-05T14:58:47.160Z,101030.31
2024-01-05T15:01:15.745Z,101021.47
2024-01-05T15:03:42.712Z,101015.59
2024-01-05T15:06:11.055Z,101031.16
2024-01-05T15:08:51.759Z,101026.16
2024-01-05T15:11:21.547Z,101021.78
2024-01-05T15:13:48.632Z,101021.72
2024-01-05T15:16:15.374Z,101000.28
2024-01-05T15:18:42.267Z,101022.00
2024-01-05T15:21:09.215Z,101030.72
2024-01-05T15:23:35.879Z,101018.63
2024-01-05T15:26:02.606Z,101018.78
2024-01-05T15:28:29.503Z,101027.50
2024-01-05T15:30:56.302Z,101033.53
2024-01-05T15:33:24.252Z,101024.72
2024-01-05T15:35:51.033Z,101022.91
2024-01-05T15:38:17.709Z,101013.16
2024-01-05T15:40:44.338Z,101015.81
2024-01-05T15:43:11.799Z,101013.25
2024-01-05T15:45:38.587Z,101024.72
2024-01-05T15:48:06.335Z,101030.13
2024-01-05T15:50:33.302Z,101031.97
2024-01-05T15:53:05.487Z,101032.06
2024-01-05T15:55:38.033Z,101027.81
2024-01-05T15:58:08.500Z,101027.16
2024-01-05T16:00:35.267Z,101024.56
2024-01-05T16:03:02.149Z,101027.38
2024-01-05T16:05:28.907Z,101043.91
2024-01-05T16:10:37.375Z,101064.22
2024-01-05T16:13:04.948Z,101078.16
2024-01-05T16:15:31.639Z,101074.59
2024-01-05T16:18:03.378Z,101078.81
2024-01-05T16:20:30.077Z,101090.06
2024-01-05T16:22:56.732Z,101092.63
2024-01-05T16:25:23.397Z,101091.72
2024-01-05T16:27:50.137Z,101089.75
2024-01-05T16:30:17.804Z,101095.03
2024-01-05T16:32:46.606Z,101090.56
2024-01-05T16:35:13.329Z,101086.34
2024-01-05T16:37:40.174Z,101108.97
2024-01-05T16:40:07.667Z,101096.84
2024-01-05T16:42:34.442Z,101093.44
2024-01-05T16:45:01.127Z,101087.34
2024-01-05T16:47:28.038Z,101092.50
2024-01-05T16:49:54.867Z,101092.41
2024-01-05T16:52:21.583Z,101097.69
2024-01-05T16:54:49.019Z,101082.78
2024-01-05T16:57:15.678Z,101098.50
2024-01-05T16:59:42.374Z,101095.13
2024-01-05T17:02:09.145Z,101106.50
2024-01-05T17:04:36.405Z,101101.19
2024-01-05T17:07:03.182Z,101110.00
2024-01-05T17:09:29.931Z,101114.31
2024-01-05T17:11:58.116Z,101106.44
2024-01-05T17:14:27.351Z,101109.81
2024-01-05T17:16:54.089Z,101108.09
2024-01-05T17:19:20.783Z,101103.56
2024-01-05T17:21:49.047Z,101110.53
2024-01-05T17:24:16.107Z,101103.56
2024-01-05T17:26:42.905Z,101090.50
2024-01-05T17:29:09.534Z,101101.97
2024-01-05T17:31:36.523Z,101091.47
2024-01-05T17:34:03.942Z,101097.59
2024-01-05T17:36:30.934Z,101095.81
2024-01-05T17:38:58.114Z,101093.19
2024-01-05T17:41:25.100Z,101086.09
2024-01-05T17:43:51.767Z,101089.53
2024-01-05T17:46:18.457Z,101095.56
2024-01-05T17:48:45.329Z,101078.88
2024-01-05T17:51:12.192Z,101079.59
2024-01-05T17:53:41.471Z,101079.56
2024-01-05T17:56:08.857Z,101082.97
2024-01-05T17:58:35.522Z,101081.03
2024-01-05T18:01:06.990Z,101087.09
2024-01-05T18:03:36.299Z,101082.63
2024-01-05T18:06:03.085Z,101097.19
2024-01-05T18:08:29.821Z,101089.38
2024-01-05T18:10:56.499Z,101075.13
2024-01-05T18:13:24.425Z,101078.44
2024-01-05T18:15:51.222Z,101080.81
2024-01-05T18:18:18.252Z,101088.63
2024-01-05T18:20:45.655Z,101099.22
2024-01-05T18:23:15.641Z,101088.00
2024-01-05T18:25:43.567Z,101095.13
2024-01-05T18:28:10.568Z,101096.94
2024-01-05T18:30:37.629Z,101101.31
2024-01-05T18:33:04.949Z,101100.50
2024-01-05T18:35:31.960Z,101098.94
2024-01-05T18:37:58.745Z,101099.88
2024-01-05T18:40:25.421Z,101104.44
2024-01-05T18:42:52.490Z,101101.91
2024-01-05T18:45:19.294Z,101121.25
2024-01-05T18:47:46.176Z,101123.97
2024-01-05T18:50:15.560Z,101125.81
2024-01-05T18:52:42.237Z,101131.22
2024-01-05T18:55:09.224Z,101120.06
2024-01-05T18:57:35.928Z,101126.25
2024-01-05T19:00:02.791Z,101128.00
2024-01-05T19:02:31.651Z,101121.06
2024-01-05T19:04:58.381Z,101141.94
2024-01-05T19:07:25.412Z,101147.19
2024-01-05T19:09:52.609Z,101148.69
2024-01-05T19:12:19.446Z,101149.63
2024-01-05T19:14:46.214Z,101143.53
2024-01-05T19:17:13.007Z,101162.84
2024-01-05T19:19:42.718Z,101153.44
2024-01-05T19:22:09.555Z,101159.44
2024-01-05T19:24:37.256Z,101161.25
2024-01-05T19:27:04.208Z,101181.50
2024-01-05T19:29:31.155Z,101164.19
2024-01-05T19:31:58.090Z,101155.41
2024-01-05T19:34:25.047Z,101164.19
2024-01-05T19:36:52.722Z,101151.00
2024-01-05T19:39:19.728Z,101151.91
2024-01-05T19:41:47.599Z,101158.94
2024-01-05T19:44:18.542Z,101158.09
2024-01-05T19:46:45.796Z,101164.19
2024-01-05T19:49:13.578Z,101153.06
2024-01-05T19:51:48.357Z,101149.63
2024-01-05T19:54:16.649Z,101160.00
2024-01-05T19:56:44.209Z,101173.25
2024-01-05T19:59:12.283Z,101167.09
2024-01-05T20:01:41.246Z,101160.09
2024-01-05T20:04:08.045Z,101165.41
2024-01-05T20:06:37.656Z,101164.56
2024-01-05T20:09:12.078Z,101163.69
2024-01-05T20:11:39.287Z,101147.19
2024-01-05T20:14:06.703Z,101150.50
2024-01-05T20:16:33.497Z,101137.41
2024-01-05T20:19:02.503Z,101151.34
2024-01-05T20:21:33.557Z,101149.63
2024-01-05T20:24:02.406Z,101147.81
2024-01-05T20:26:30.370Z,101140.72
2024-01-05T20:28:57.693Z,101153.88
2024-01-05T20:31:24.802Z,101166.06
2024-01-05T20:33:52.666Z,101166.16
2024-01-05T20:36:19.693Z,101157.47
2024-01-05T20:38:46.590Z,101159.06
2024-01-05T20:41:13.700Z,101172.25
2024-01-05T20:43:43.681Z,101170.72
2024-01-05T20:46:10.988Z,101178.31
2024-01-05T20:48:38.559Z,101173.84
2024-01-05T20:51:08.347Z,101169.50
2024-01-05T20:53:35.636Z,101167.78
2024-01-05T20:56:02.529Z,101168.69
2024-01-05T20:58:29.238Z,101171.31
2024-01-05T21:00:59.004Z,101177.38
2024-01-05T21:03:26.116Z,101169.56
2024-01-05T21:05:53.259Z,101156.34
2024-01-05T21:08:20.226Z,101158.09
2024-01-05T21:10:46.901Z,101162.41
2024-01-05T21:13:13.665Z,101155.44
2024-01-05T21:15:40.397Z,101166.88
2024-01-05T21:18:08.159Z,101179.09
2024-01-05T21:20:35.058Z,101175.53
2024-01-05T21:23:01.891Z,101176.28
2024-01-05T21:25:30.630Z,101175.44
2024-01-05T21:27:57.757Z,101166.63
2024-01-05T21:30:24.809Z,101173.63
2024-01-05T21:32:52.172Z,101167.31
2024-01-05T21:35:18.949Z,101176.91
2024-01-05T21:37:45.994Z,101183.03
2024-01-05T21:40:12.735Z,101176.91
2024-01-05T21:42:39.667Z,101179.53
2024-01-05T21:45:08.250Z,101184.88
2024-01-05T21:47:36.806Z,101178.72
2024-01-05T21:50:06.708Z,101179.75
2024-01-05T21:52:33.658Z,101181.53
2024-01-05T21:55:00.444Z,101185.09
2024-01-05T21:57:31.388Z,101198.16
2024-01-05T21:59:58.140Z,101187.66
2024-01-05T22:02:25.788Z,101184.97
2024-01-05T22:04:52.541Z,101192.00
2024-01-05T22:07:19.315Z,101193.69
2024-01-05T22:09:46.062Z,101195.44
2024-01-05T22:12:13.348Z,101197.91
2024-01-05T22:14:42.772Z,101183.97
2024-01-05T22:17:09.744Z,101180.69
2024-01-05T22:19:37.106Z,101191.94
2024-01-05T22:22:04.506Z,101188.44
2024-01-05T22:24:31.600Z,101190.28
2024-01-05T22:27:07.838Z,101193.69
2024-01-05T22:29:37.073Z,101190.22
2024-01-05T22:32:04.061Z,101186.94
2024-01-05T22:34:48.771Z,101184.19
2024-01-05T22:37:16.927Z,101187.53
2024-01-05T22:39:43.704Z,101185.81
2024-01-05T22:42:12.774Z,101186.75
2024-01-05T22:44:45.097Z,101194.50
2024-01-05T22:47:11.996Z,101187.50
2024-01-05T22:49:40.949Z,101193.59
2024-01-05T22:52:08.301Z,101197.13
2024-01-05T22:54:35.870Z,101190.13
2024-01-05T22:57:04.099Z,101194.50
2024-01-05T22:59:32.955Z,101190.97
2024-01-05T23:02:00.378Z,101180.47
2024-01-05T23:04:27.909Z,101183.28
2024-01-05T23:06:56.564Z,101191.06
2024-01-05T23:09:26.288Z,101190.97
2024-01-05T23:12:13.455Z,101187.66
2024-01-05T23:14:43.789Z,101200.50
2024-01-05T23:17:10.453Z,101191.81
2024-01-05T23:19:38.659Z,101185.72
2024-01-05T23:22:05.810Z,101190.97
2024-01-05T23:24:32.595Z,101204.06
2024-01-05T23:26:59.320Z,101197.88
2024-01-05T23:29:26.037Z,101188.41
2024-01-05T23:31:52.854Z,101202.03
2024-01-05T23:34:19.868Z,101198.63
2024-01-05T23:36:46.680Z,101202.84
2024-01-05T23:39:13.453Z,101192.22
2024-01-05T23:41:40.231Z,101195.66
2024-01-05T23:44:06.869Z,101191.44
2024-01-05T23:46:33.518Z,101205.22
2024-01-05T23:49:00.294Z,101206.16
2024-01-05T23:51:27.087Z,101207.75
2024-01-05T23:53:54.152Z,101220.72
2024-01-05T23:56:20.881Z,101211.19
2024-01-05T23:58:47.547Z,101218.75
